sensor_id;sensor_type;location;lat;lon;timestamp;P1;durP1;ratioP1;P2;durP2;ratioP2
10894;SDS011;5500;49.886;8.074;2023-06-10T00:00:16;7.67;;;6.17;;
10894;SDS011;5500;49.886;8.074;2023-06-10T00:02:44;6.60;;;5.80;;
10894;SDS011;5500;49.886;8.074;2023-06-10T00:05:12;8.63;;;6.13;;
10894;SDS011;5500;49.886;8.074;2023-06-10T00:07:39;7.77;;;5.23;;
10894;SDS011;5500;49.886;8.074;2023-06-10T00:10:07;6.73;;;6.13;;
10894;SDS011;5500;49.886;8.074;2023-06-10T00:12:36;9.27;;;5.63;;
10894;SDS011;5500;49.886;8.074;2023-06-10T00:15:05;6.70;;;5.67;;
10894;SDS011;5500;49.886;8.074;2023-06-10T00:17:36;8.33;;;5.77;;
10894;SDS011;5500;49.886;8.074;2023-06-10T00:20:07;7.33;;;6.10;;
10894;SDS011;5500;49.886;8.074;2023-06-10T00:22:37;7.87;;;5.67;;
10894;SDS011;5500;49.886;8.074;2023-06-10T00:25:06;7.57;;;6.30;;
10894;SDS011;5500;49.886;8.074;2023-06-10T00:27:35;9.30;;;6.60;;
10894;SDS011;5500;49.886;8.074;2023-06-10T00:30:03;6.90;;;6.07;;
10894;SDS011;5500;49.886;8.074;2023-06-10T00:32:33;8.53;;;7.20;;
10894;SDS011;5500;49.886;8.074;2023-06-10T00:35:03;7.83;;;6.80;;
10894;SDS011;5500;49.886;8.074;2023-06-10T00:37:33;12.27;;;7.00;;
10894;SDS011;5500;49.886;8.074;2023-06-10T00:40:01;10.30;;;7.10;;
10894;SDS011;5500;49.886;8.074;2023-06-10T00:42:29;7.57;;;6.77;;
10894;SDS011;5500;49.886;8.074;2023-06-10T00:44:57;9.37;;;7.47;;
10894;SDS011;5500;49.886;8.074;2023-06-10T00:47:25;8.40;;;6.70;;
10894;SDS011;5500;49.886;8.074;2023-06-10T00:49:53;10.20;;;6.67;;
10894;SDS011;5500;49.886;8.074;2023-06-10T00:52:22;7.23;;;6.57;;
10894;SDS011;5500;49.886;8.074;2023-06-10T00:54:55;6.77;;;6.00;;
10894;SDS011;5500;49.886;8.074;2023-06-10T00:57:22;10.73;;;6.67;;
10894;SDS011;5500;49.886;8.074;2023-06-10T00:59:51;8.27;;;6.73;;
10894;SDS011;5500;49.886;8.074;2023-06-10T01:02:19;8.00;;;6.53;;
10894;SDS011;5500;49.886;8.074;2023-06-10T01:04:47;9.13;;;7.20;;
10894;SDS011;5500;49.886;8.074;2023-06-10T01:07:17;11.77;;;7.03;;
10894;SDS011;5500;49.886;8.074;2023-06-10T01:09:52;7.00;;;6.33;;
10894;SDS011;5500;49.886;8.074;2023-06-10T01:12:25;13.07;;;7.40;;
10894;SDS011;5500;49.886;8.074;2023-06-10T01:14:56;9.63;;;7.10;;
10894;SDS011;5500;49.886;8.074;2023-06-10T01:17:25;7.43;;;6.67;;
10894;SDS011;5500;49.886;8.074;2023-06-10T01:19:54;10.33;;;7.53;;
10894;SDS011;5500;49.886;8.074;2023-06-10T01:22:24;9.60;;;7.13;;
10894;SDS011;5500;49.886;8.074;2023-06-10T01:24:54;9.50;;;7.50;;
10894;SDS011;5500;49.886;8.074;2023-06-10T01:27:26;11.87;;;7.60;;
10894;SDS011;5500;49.886;8.074;2023-06-10T01:29:58;9.70;;;6.80;;
10894;SDS011;5500;49.886;8.074;2023-06-10T01:32:32;9.53;;;7.70;;
10894;SDS011;5500;49.886;8.074;2023-06-10T01:35:02;9.50;;;7.33;;
10894;SDS011;5500;49.886;8.074;2023-06-10T01:37:31;9.77;;;6.47;;
10894;SDS011;5500;49.886;8.074;2023-06-10T01:40:02;9.57;;;6.70;;
10894;SDS011;5500;49.886;8.074;2023-06-10T01:42:32;7.43;;;6.73;;
10894;SDS011;5500;49.886;8.074;2023-06-10T01:45:00;9.90;;;6.47;;
10894;SDS011;5500;49.886;8.074;2023-06-10T01:47:28;9.97;;;7.00;;
10894;SDS011;5500;49.886;8.074;2023-06-10T01:49:55;9.43;;;7.17;;
10894;SDS011;5500;49.886;8.074;2023-06-10T01:52:24;9.07;;;6.53;;
10894;SDS011;5500;49.886;8.074;2023-06-10T01:54:53;9.20;;;6.40;;
10894;SDS011;5500;49.886;8.074;2023-06-10T01:57:21;9.53;;;6.70;;
10894;SDS011;5500;49.886;8.074;2023-06-10T01:59:49;12.37;;;6.93;;
10894;SDS011;5500;49.886;8.074;2023-06-10T02:02:16;7.07;;;5.97;;
10894;SDS011;5500;49.886;8.074;2023-06-10T02:04:44;9.90;;;6.83;;
10894;SDS011;5500;49.886;8.074;2023-06-10T02:07:12;8.53;;;6.73;;
10894;SDS011;5500;49.886;8.074;2023-06-10T02:09:40;8.97;;;6.80;;
10894;SDS011;5500;49.886;8.074;2023-06-10T02:12:09;9.40;;;6.30;;
10894;SDS011;5500;49.886;8.074;2023-06-10T02:14:37;8.93;;;6.83;;
10894;SDS011;5500;49.886;8.074;2023-06-10T02:17:05;7.77;;;6.67;;
10894;SDS011;5500;49.886;8.074;2023-06-10T02:19:33;8.47;;;6.43;;
10894;SDS011;5500;49.886;8.074;2023-06-10T02:22:03;8.73;;;6.40;;
10894;SDS011;5500;49.886;8.074;2023-06-10T02:24:30;10.83;;;6.70;;
10894;SDS011;5500;49.886;8.074;2023-06-10T02:26:58;12.80;;;6.40;;
10894;SDS011;5500;49.886;8.074;2023-06-10T02:29:28;9.00;;;6.20;;
10894;SDS011;5500;49.886;8.074;2023-06-10T02:31:55;7.07;;;6.23;;
10894;SDS011;5500;49.886;8.074;2023-06-10T02:34:23;9.30;;;6.63;;
10894;SDS011;5500;49.886;8.074;2023-06-10T02:36:50;7.03;;;6.33;;
10894;SDS011;5500;49.886;8.074;2023-06-10T02:39:18;8.93;;;6.60;;
10894;SDS011;5500;49.886;8.074;2023-06-10T02:41:46;7.67;;;6.83;;
10894;SDS011;5500;49.886;8.074;2023-06-10T02:44:13;7.43;;;6.30;;
10894;SDS011;5500;49.886;8.074;2023-06-10T02:46:42;9.30;;;6.67;;
10894;SDS011;5500;49.886;8.074;2023-06-10T02:49:11;10.33;;;5.90;;
10894;SDS011;5500;49.886;8.074;2023-06-10T02:51:38;9.80;;;6.30;;
10894;SDS011;5500;49.886;8.074;2023-06-10T02:54:06;12.70;;;6.17;;
10894;SDS011;5500;49.886;8.074;2023-06-10T02:56:33;9.83;;;6.37;;
10894;SDS011;5500;49.886;8.074;2023-06-10T02:59:02;11.13;;;6.83;;
10894;SDS011;5500;49.886;8.074;2023-06-10T03:01:30;9.63;;;6.73;;
10894;SDS011;5500;49.886;8.074;2023-06-10T03:04:00;6.87;;;5.67;;
10894;SDS011;5500;49.886;8.074;2023-06-10T03:06:27;11.83;;;6.40;;
10894;SDS011;5500;49.886;8.074;2023-06-10T03:08:55;7.80;;;6.30;;
10894;SDS011;5500;49.886;8.074;2023-06-10T03:11:23;8.10;;;6.47;;
10894;SDS011;5500;49.886;8.074;2023-06-10T03:13:52;8.10;;;5.67;;
10894;SDS011;5500;49.886;8.074;2023-06-10T03:16:19;8.73;;;5.80;;
10894;SDS011;5500;49.886;8.074;2023-06-10T03:18:48;10.10;;;6.30;;
10894;SDS011;5500;49.886;8.074;2023-06-10T03:21:17;12.87;;;6.57;;
10894;SDS011;5500;49.886;8.074;2023-06-10T03:23:45;9.53;;;6.33;;
10894;SDS011;5500;49.886;8.074;2023-06-10T03:26:13;7.10;;;5.50;;
10894;SDS011;5500;49.886;8.074;2023-06-10T03:28:42;11.43;;;6.47;;
10894;SDS011;5500;49.886;8.074;2023-06-10T03:31:09;15.77;;;6.13;;
10894;SDS011;5500;49.886;8.074;2023-06-10T03:33:37;7.03;;;6.33;;
10894;SDS011;5500;49.886;8.074;2023-06-10T03:36:05;8.40;;;6.43;;
10894;SDS011;5500;49.886;8.074;2023-06-10T03:38:34;11.60;;;6.30;;
10894;SDS011;5500;49.886;8.074;2023-06-10T03:41:02;9.50;;;6.30;;
10894;SDS011;5500;49.886;8.074;2023-06-10T03:43:30;6.37;;;5.77;;
10894;SDS011;5500;49.886;8.074;2023-06-10T03:45:58;9.00;;;5.80;;
10894;SDS011;5500;49.886;8.074;2023-06-10T03:48:26;8.67;;;6.00;;
10894;SDS011;5500;49.886;8.074;2023-06-10T03:50:53;8.53;;;5.97;;
10894;SDS011;5500;49.886;8.074;2023-06-10T03:53:21;11.70;;;5.97;;
10894;SDS011;5500;49.886;8.074;2023-06-10T03:55:50;8.57;;;6.17;;
10894;SDS011;5500;49.886;8.074;2023-06-10T03:58:18;6.73;;;5.73;;
10894;SDS011;5500;49.886;8.074;2023-06-10T04:00:45;7.10;;;5.47;;
10894;SDS011;5500;49.886;8.074;2023-06-10T04:03:14;9.10;;;5.63;;
10894;SDS011;5500;49.886;8.074;2023-06-10T04:05:42;7.90;;;5.60;;
10894;SDS011;5500;49.886;8.074;2023-06-10T04:08:11;7.37;;;5.33;;
10894;SDS011;5500;49.886;8.074;2023-06-10T04:10:38;8.93;;;6.17;;
10894;SDS011;5500;49.886;8.074;2023-06-10T04:13:07;5.77;;;5.17;;
10894;SDS011;5500;49.886;8.074;2023-06-10T04:15:35;12.67;;;5.87;;
10894;SDS011;5500;49.886;8.074;2023-06-10T04:18:04;9.07;;;5.80;;
10894;SDS011;5500;49.886;8.074;2023-06-10T04:20:32;7.93;;;5.93;;
10894;SDS011;5500;49.886;8.074;2023-06-10T04:22:59;8.47;;;5.67;;
10894;SDS011;5500;49.886;8.074;2023-06-10T04:25:27;8.77;;;5.43;;
10894;SDS011;5500;49.886;8.074;2023-06-10T04:27:55;7.33;;;5.87;;
10894;SDS011;5500;49.886;8.074;2023-06-10T04:30:24;7.20;;;5.47;;
10894;SDS011;5500;49.886;8.074;2023-06-10T04:32:52;7.97;;;5.53;;
10894;SDS011;5500;49.886;8.074;2023-06-10T04:35:20;6.33;;;5.30;;
10894;SDS011;5500;49.886;8.074;2023-06-10T04:37:48;5.60;;;5.10;;
10894;SDS011;5500;49.886;8.074;2023-06-10T04:40:15;7.13;;;5.33;;
10894;SDS011;5500;49.886;8.074;2023-06-10T04:42:44;6.17;;;5.47;;
10894;SDS011;5500;49.886;8.074;2023-06-10T04:45:11;7.77;;;5.03;;
10894;SDS011;5500;49.886;8.074;2023-06-10T04:47:40;6.30;;;4.83;;
10894;SDS011;5500;49.886;8.074;2023-06-10T04:50:08;8.00;;;5.50;;
10894;SDS011;5500;49.886;8.074;2023-06-10T04:52:36;5.40;;;4.90;;
10894;SDS011;5500;49.886;8.074;2023-06-10T04:55:04;5.83;;;4.90;;
10894;SDS011;5500;49.886;8.074;2023-06-10T04:57:33;5.77;;;5.07;;
10894;SDS011;5500;49.886;8.074;2023-06-10T05:00:01;7.90;;;4.43;;
10894;SDS011;5500;49.886;8.074;2023-06-10T05:02:31;6.80;;;5.13;;
10894;SDS011;5500;49.886;8.074;2023-06-10T05:05:01;6.97;;;5.73;;
10894;SDS011;5500;49.886;8.074;2023-06-10T05:07:28;6.63;;;5.33;;
10894;SDS011;5500;49.886;8.074;2023-06-10T05:09:56;6.33;;;4.93;;
10894;SDS011;5500;49.886;8.074;2023-06-10T05:12:23;5.53;;;4.60;;
10894;SDS011;5500;49.886;8.074;2023-06-10T05:14:51;7.30;;;5.10;;
10894;SDS011;5500;49.886;8.074;2023-06-10T05:17:19;8.90;;;5.40;;
10894;SDS011;5500;49.886;8.074;2023-06-10T05:19:46;5.90;;;4.47;;
10894;SDS011;5500;49.886;8.074;2023-06-10T05:22:15;5.97;;;4.90;;
10894;SDS011;5500;49.886;8.074;2023-06-10T05:24:44;6.57;;;4.57;;
10894;SDS011;5500;49.886;8.074;2023-06-10T05:27:11;4.87;;;4.37;;
10894;SDS011;5500;49.886;8.074;2023-06-10T05:29:39;5.80;;;5.23;;
10894;SDS011;5500;49.886;8.074;2023-06-10T05:32:07;5.47;;;5.07;;
10894;SDS011;5500;49.886;8.074;2023-06-10T05:34:35;8.03;;;4.53;;
10894;SDS011;5500;49.886;8.074;2023-06-10T05:37:03;5.80;;;4.87;;
10894;SDS011;5500;49.886;8.074;2023-06-10T05:39:33;6.67;;;4.40;;
10894;SDS011;5500;49.886;8.074;2023-06-10T05:42:04;6.03;;;5.40;;
10894;SDS011;5500;49.886;8.074;2023-06-10T05:44:33;7.83;;;4.87;;
10894;SDS011;5500;49.886;8.074;2023-06-10T05:47:00;7.00;;;5.20;;
10894;SDS011;5500;49.886;8.074;2023-06-10T05:49:28;5.33;;;4.83;;
10894;SDS011;5500;49.886;8.074;2023-06-10T05:51:56;6.40;;;5.23;;
10894;SDS011;5500;49.886;8.074;2023-06-10T05:54:25;6.70;;;5.03;;
10894;SDS011;5500;49.886;8.074;2023-06-10T05:56:56;5.43;;;4.77;;
10894;SDS011;5500;49.886;8.074;2023-06-10T05:59:24;6.03;;;5.00;;
10894;SDS011;5500;49.886;8.074;2023-06-10T06:01:52;9.53;;;5.17;;
10894;SDS011;5500;49.886;8.074;2023-06-10T06:04:19;7.60;;;5.37;;
10894;SDS011;5500;49.886;8.074;2023-06-10T06:06:47;4.93;;;4.43;;
10894;SDS011;5500;49.886;8.074;2023-06-10T06:09:15;7.13;;;5.60;;
10894;SDS011;5500;49.886;8.074;2023-06-10T06:11:42;5.90;;;5.30;;
10894;SDS011;5500;49.886;8.074;2023-06-10T06:14:11;5.63;;;5.10;;
10894;SDS011;5500;49.886;8.074;2023-06-10T06:16:39;8.67;;;5.77;;
10894;SDS011;5500;49.886;8.074;2023-06-10T06:19:07;5.57;;;5.07;;
10894;SDS011;5500;49.886;8.074;2023-06-10T06:21:35;7.87;;;5.10;;
10894;SDS011;5500;49.886;8.074;2023-06-10T06:24:03;6.27;;;5.27;;
10894;SDS011;5500;49.886;8.074;2023-06-10T06:26:32;6.13;;;5.03;;
10894;SDS011;5500;49.886;8.074;2023-06-10T06:28:59;4.83;;;4.43;;
10894;SDS011;5500;49.886;8.074;2023-06-10T06:31:28;8.57;;;5.30;;
10894;SDS011;5500;49.886;8.074;2023-06-10T06:33:57;7.03;;;4.93;;
10894;SDS011;5500;49.886;8.074;2023-06-10T06:36:25;8.27;;;5.53;;
10894;SDS011;5500;49.886;8.074;2023-06-10T06:38:53;4.83;;;4.43;;
10894;SDS011;5500;49.886;8.074;2023-06-10T06:41:20;6.83;;;5.13;;
10894;SDS011;5500;49.886;8.074;2023-06-10T06:43:48;6.63;;;5.23;;
10894;SDS011;5500;49.886;8.074;2023-06-10T06:46:16;7.17;;;5.03;;
10894;SDS011;5500;49.886;8.074;2023-06-10T06:48:45;9.83;;;5.80;;
10894;SDS011;5500;49.886;8.074;2023-06-10T06:51:13;6.47;;;4.93;;
10894;SDS011;5500;49.886;8.074;2023-06-10T06:53:40;6.93;;;4.47;;
10894;SDS011;5500;49.886;8.074;2023-06-10T06:56:11;7.77;;;5.20;;
10894;SDS011;5500;49.886;8.074;2023-06-10T06:58:38;7.97;;;5.40;;
10894;SDS011;5500;49.886;8.074;2023-06-10T07:01:06;8.27;;;5.50;;
10894;SDS011;5500;49.886;8.074;2023-06-10T07:03:34;5.23;;;4.73;;
10894;SDS011;5500;49.886;8.074;2023-06-10T07:06:03;8.03;;;5.40;;
10894;SDS011;5500;49.886;8.074;2023-06-10T07:08:31;5.93;;;5.07;;
10894;SDS011;5500;49.886;8.074;2023-06-10T07:10:59;7.77;;;5.03;;
10894;SDS011;5500;49.886;8.074;2023-06-10T07:13:27;7.37;;;4.87;;
10894;SDS011;5500;49.886;8.074;2023-06-10T07:15:54;7.47;;;5.33;;
10894;SDS011;5500;49.886;8.074;2023-06-10T07:18:22;5.80;;;4.90;;
10894;SDS011;5500;49.886;8.074;2023-06-10T07:20:50;5.90;;;5.30;;
10894;SDS011;5500;49.886;8.074;2023-06-10T07:23:19;7.17;;;5.13;;
10894;SDS011;5500;49.886;8.074;2023-06-10T07:25:46;6.87;;;4.87;;
10894;SDS011;5500;49.886;8.074;2023-06-10T07:28:14;5.83;;;5.23;;
10894;SDS011;5500;49.886;8.074;2023-06-10T07:30:42;5.57;;;5.07;;
10894;SDS011;5500;49.886;8.074;2023-06-10T07:33:09;5.67;;;5.17;;
10894;SDS011;5500;49.886;8.074;2023-06-10T07:35:37;5.70;;;5.20;;
10894;SDS011;5500;49.886;8.074;2023-06-10T07:38:05;6.70;;;5.13;;
10894;SDS011;5500;49.886;8.074;2023-06-10T07:40:34;6.37;;;5.60;;
10894;SDS011;5500;49.886;8.074;2023-06-10T07:43:01;6.63;;;5.13;;
10894;SDS011;5500;49.886;8.074;2023-06-10T07:45:29;6.13;;;5.47;;
10894;SDS011;5500;49.886;8.074;2023-06-10T07:47:57;6.60;;;4.97;;
10894;SDS011;5500;49.886;8.074;2023-06-10T07:50:24;6.70;;;5.20;;
10894;SDS011;5500;49.886;8.074;2023-06-10T07:52:52;7.53;;;5.03;;
10894;SDS011;5500;49.886;8.074;2023-06-10T07:55:20;6.00;;;5.20;;
10894;SDS011;5500;49.886;8.074;2023-06-10T07:57:49;7.17;;;5.63;;
10894;SDS011;5500;49.886;8.074;2023-06-10T08:00:17;6.40;;;4.70;;
10894;SDS011;5500;49.886;8.074;2023-06-10T08:02:45;6.87;;;4.93;;
10894;SDS011;5500;49.886;8.074;2023-06-10T08:05:12;6.30;;;4.80;;
10894;SDS011;5500;49.886;8.074;2023-06-10T08:07:40;5.00;;;4.60;;
10894;SDS011;5500;49.886;8.074;2023-06-10T08:10:08;6.60;;;5.10;;
10894;SDS011;5500;49.886;8.074;2023-06-10T08:12:36;5.27;;;4.77;;
10894;SDS011;5500;49.886;8.074;2023-06-10T08:15:06;5.07;;;4.60;;
10894;SDS011;5500;49.886;8.074;2023-06-10T08:17:35;6.37;;;5.30;;
10894;SDS011;5500;49.886;8.074;2023-06-10T08:20:02;5.50;;;4.90;;
10894;SDS011;5500;49.886;8.074;2023-06-10T08:22:31;5.30;;;4.80;;
10894;SDS011;5500;49.886;8.074;2023-06-10T08:24:59;5.60;;;5.10;;
10894;SDS011;5500;49.886;8.074;2023-06-10T08:27:27;7.13;;;5.30;;
10894;SDS011;5500;49.886;8.074;2023-06-10T08:29:55;7.37;;;5.10;;
10894;SDS011;5500;49.886;8.074;2023-06-10T08:32:24;6.90;;;5.00;;
10894;SDS011;5500;49.886;8.074;2023-06-10T08:34:51;6.63;;;4.87;;
10894;SDS011;5500;49.886;8.074;2023-06-10T08:37:19;6.00;;;5.03;;
10894;SDS011;5500;49.886;8.074;2023-06-10T08:39:46;6.40;;;4.83;;
10894;SDS011;5500;49.886;8.074;2023-06-10T08:42:16;7.93;;;4.90;;
10894;SDS011;5500;49.886;8.074;2023-06-10T08:44:50;6.43;;;5.10;;
10894;SDS011;5500;49.886;8.074;2023-06-10T08:47:22;7.37;;;5.20;;
10894;SDS011;5500;49.886;8.074;2023-06-10T08:49:51;6.53;;;4.97;;
10894;SDS011;5500;49.886;8.074;2023-06-10T08:52:22;4.67;;;4.17;;
10894;SDS011;5500;49.886;8.074;2023-06-10T08:54:52;7.00;;;4.97;;
10894;SDS011;5500;49.886;8.074;2023-06-10T08:57:22;5.80;;;4.90;;
10894;SDS011;5500;49.886;8.074;2023-06-10T08:59:49;6.50;;;5.40;;
10894;SDS011;5500;49.886;8.074;2023-06-10T09:02:17;5.53;;;5.03;;
10894;SDS011;5500;49.886;8.074;2023-06-10T09:04:48;5.90;;;5.30;;
10894;SDS011;5500;49.886;8.074;2023-06-10T09:07:16;6.03;;;4.77;;
10894;SDS011;5500;49.886;8.074;2023-06-10T09:09:44;6.50;;;5.10;;
10894;SDS011;5500;49.886;8.074;2023-06-10T09:12:13;6.15;;;5.55;;
10894;SDS011;5500;49.886;8.074;2023-06-10T09:14:41;8.05;;;5.43;;
10894;SDS011;5500;49.886;8.074;2023-06-10T09:17:09;7.25;;;5.00;;
10894;SDS011;5500;49.886;8.074;2023-06-10T09:19:37;6.45;;;5.55;;
10894;SDS011;5500;49.886;8.074;2023-06-10T09:22:06;6.57;;;5.78;;
10894;SDS011;5500;49.886;8.074;2023-06-10T09:24:34;5.35;;;4.85;;
10894;SDS011;5500;49.886;8.074;2023-06-10T09:27:02;6.40;;;5.07;;
10894;SDS011;5500;49.886;8.074;2023-06-10T09:29:31;5.10;;;4.63;;
10894;SDS011;5500;49.886;8.074;2023-06-10T09:31:59;6.50;;;4.70;;
10894;SDS011;5500;49.886;8.074;2023-06-10T09:34:28;7.28;;;4.95;;
10894;SDS011;5500;49.886;8.074;2023-06-10T09:36:56;7.45;;;4.95;;
10894;SDS011;5500;49.886;8.074;2023-06-10T09:39:26;5.68;;;5.13;;
10894;SDS011;5500;49.886;8.074;2023-06-10T09:41:54;5.68;;;5.15;;
10894;SDS011;5500;49.886;8.074;2023-06-10T09:44:22;6.97;;;5.55;;
10894;SDS011;5500;49.886;8.074;2023-06-10T09:46:51;8.18;;;5.40;;
10894;SDS011;5500;49.886;8.074;2023-06-10T09:49:21;5.53;;;4.88;;
10894;SDS011;5500;49.886;8.074;2023-06-10T09:51:49;6.32;;;5.25;;
10894;SDS011;5500;49.886;8.074;2023-06-10T09:54:18;5.82;;;5.15;;
10894;SDS011;5500;49.886;8.074;2023-06-10T09:56:48;5.47;;;4.97;;
10894;SDS011;5500;49.886;8.074;2023-06-10T09:59:19;5.70;;;5.03;;
10894;SDS011;5500;49.886;8.074;2023-06-10T10:01:55;5.57;;;5.05;;
10894;SDS011;5500;49.886;8.074;2023-06-10T10:04:23;7.38;;;5.30;;
10894;SDS011;5500;49.886;8.074;2023-06-10T10:06:51;6.22;;;5.00;;
10894;SDS011;5500;49.886;8.074;2023-06-10T10:09:19;5.90;;;5.40;;
10894;SDS011;5500;49.886;8.074;2023-06-10T10:11:48;6.03;;;5.18;;
10894;SDS011;5500;49.886;8.074;2023-06-10T10:14:16;8.68;;;5.50;;
10894;SDS011;5500;49.886;8.074;2023-06-10T10:16:44;9.60;;;5.35;;
10894;SDS011;5500;49.886;8.074;2023-06-10T10:19:14;5.82;;;5.22;;
10894;SDS011;5500;49.886;8.074;2023-06-10T10:21:44;7.57;;;5.55;;
10894;SDS011;5500;49.886;8.074;2023-06-10T10:24:17;9.13;;;5.03;;
10894;SDS011;5500;49.886;8.074;2023-06-10T10:26:46;5.28;;;4.78;;
10894;SDS011;5500;49.886;8.074;2023-06-10T10:29:20;5.72;;;4.70;;
10894;SDS011;5500;49.886;8.074;2023-06-10T10:31:52;5.18;;;4.78;;
10894;SDS011;5500;49.886;8.074;2023-06-10T10:34:23;5.15;;;4.55;;
10894;SDS011;5500;49.886;8.074;2023-06-10T10:36:54;5.78;;;4.07;;
10894;SDS011;5500;49.886;8.074;2023-06-10T10:39:22;6.80;;;4.97;;
10894;SDS011;5500;49.886;8.074;2023-06-10T10:41:52;8.45;;;4.65;;
10894;SDS011;5500;49.886;8.074;2023-06-10T10:44:20;6.03;;;4.50;;
10894;SDS011;5500;49.886;8.074;2023-06-10T10:46:49;5.65;;;4.55;;
10894;SDS011;5500;49.886;8.074;2023-06-10T10:49:17;4.32;;;3.92;;
10894;SDS011;5500;49.886;8.074;2023-06-10T10:51:55;4.60;;;4.15;;
10894;SDS011;5500;49.886;8.074;2023-06-10T10:54:30;6.50;;;4.35;;
10894;SDS011;5500;49.886;8.074;2023-06-10T10:57:15;4.88;;;4.40;;
10894;SDS011;5500;49.886;8.074;2023-06-10T10:59:51;4.75;;;4.35;;
10894;SDS011;5500;49.886;8.074;2023-06-10T11:02:38;4.45;;;4.05;;
10894;SDS011;5500;49.886;8.074;2023-06-10T11:05:10;5.32;;;4.57;;
10894;SDS011;5500;49.886;8.074;2023-06-10T11:07:39;7.15;;;4.45;;
10894;SDS011;5500;49.886;8.074;2023-06-10T11:10:07;6.32;;;5.22;;
10894;SDS011;5500;49.886;8.074;2023-06-10T11:12:41;6.35;;;4.60;;
10894;SDS011;5500;49.886;8.074;2023-06-10T11:15:17;6.80;;;3.92;;
10894;SDS011;5500;49.886;8.074;2023-06-10T11:18:05;4.82;;;4.25;;
10894;SDS011;5500;49.886;8.074;2023-06-10T11:23:25;6.40;;;4.85;;
10894;SDS011;5500;49.886;8.074;2023-06-10T11:26:10;5.95;;;4.57;;
10894;SDS011;5500;49.886;8.074;2023-06-10T11:29:02;5.68;;;4.82;;
10894;SDS011;5500;49.886;8.074;2023-06-10T11:31:38;4.72;;;4.30;;
10894;SDS011;5500;49.886;8.074;2023-06-10T11:34:07;4.85;;;4.45;;
10894;SDS011;5500;49.886;8.074;2023-06-10T11:36:36;4.47;;;4.10;;
10894;SDS011;5500;49.886;8.074;2023-06-10T11:39:06;4.40;;;4.10;;
10894;SDS011;5500;49.886;8.074;2023-06-10T11:41:35;4.80;;;4.40;;
10894;SDS011;5500;49.886;8.074;2023-06-10T11:44:07;6.45;;;4.47;;
10894;SDS011;5500;49.886;8.074;2023-06-10T11:46:35;4.53;;;3.95;;
10894;SDS011;5500;49.886;8.074;2023-06-10T11:49:04;4.85;;;4.45;;
10894;SDS011;5500;49.886;8.074;2023-06-10T11:51:33;5.00;;;4.50;;
10894;SDS011;5500;49.886;8.074;2023-06-10T11:54:02;5.13;;;4.63;;
10894;SDS011;5500;49.886;8.074;2023-06-10T11:56:30;4.85;;;4.45;;
10894;SDS011;5500;49.886;8.074;2023-06-10T11:58:59;6.63;;;5.18;;
10894;SDS011;5500;49.886;8.074;2023-06-10T12:01:32;7.78;;;5.10;;
10894;SDS011;5500;49.886;8.074;2023-06-10T12:04:00;6.53;;;4.78;;
10894;SDS011;5500;49.886;8.074;2023-06-10T12:06:39;5.32;;;4.85;;
10894;SDS011;5500;49.886;8.074;2023-06-10T12:09:12;5.50;;;4.90;;
10894;SDS011;5500;49.886;8.074;2023-06-10T12:11:51;8.10;;;4.60;;
10894;SDS011;5500;49.886;8.074;2023-06-10T12:17:21;5.28;;;4.55;;
10894;SDS011;5500;49.886;8.074;2023-06-10T12:19:50;5.28;;;4.72;;
10894;SDS011;5500;49.886;8.074;2023-06-10T12:22:17;8.07;;;5.00;;
10894;SDS011;5500;49.886;8.074;2023-06-10T12:24:57;5.93;;;4.25;;
10894;SDS011;5500;49.886;8.074;2023-06-10T12:27:27;5.22;;;4.32;;
10894;SDS011;5500;49.886;8.074;2023-06-10T12:29:56;6.05;;;4.63;;
10894;SDS011;5500;49.886;8.074;2023-06-10T12:32:36;8.15;;;4.53;;
10894;SDS011;5500;49.886;8.074;2023-06-10T12:35:07;6.82;;;4.53;;
10894;SDS011;5500;49.886;8.074;2023-06-10T12:37:36;5.65;;;4.38;;
10894;SDS011;5500;49.886;8.074;2023-06-10T12:40:08;5.38;;;4.90;;
10894;SDS011;5500;49.886;8.074;2023-06-10T12:42:37;9.23;;;4.80;;
10894;SDS011;5500;49.886;8.074;2023-06-10T12:45:05;6.45;;;4.38;;
10894;SDS011;5500;49.886;8.074;2023-06-10T12:47:38;4.85;;;4.45;;
10894;SDS011;5500;49.886;8.074;2023-06-10T12:50:06;5.78;;;4.78;;
10894;SDS011;5500;49.886;8.074;2023-06-10T12:52:35;5.82;;;4.47;;
10894;SDS011;5500;49.886;8.074;2023-06-10T12:55:03;5.22;;;4.57;;
10894;SDS011;5500;49.886;8.074;2023-06-10T12:57:31;5.82;;;4.30;;
10894;SDS011;5500;49.886;8.074;2023-06-10T12:59:59;4.38;;;4.07;;
10894;SDS011;5500;49.886;8.074;2023-06-10T13:02:31;4.82;;;4.30;;
10894;SDS011;5500;49.886;8.074;2023-06-10T13:05:00;4.28;;;3.90;;
10894;SDS011;5500;49.886;8.074;2023-06-10T13:07:29;8.27;;;4.28;;
10894;SDS011;5500;49.886;8.074;2023-06-10T13:09:57;5.72;;;4.53;;
10894;SDS011;5500;49.886;8.074;2023-06-10T13:12:25;6.85;;;4.18;;
10894;SDS011;5500;49.886;8.074;2023-06-10T13:15:11;4.85;;;4.03;;
10894;SDS011;5500;49.886;8.074;2023-06-10T13:17:39;6.40;;;4.10;;
10894;SDS011;5500;49.886;8.074;2023-06-10T13:20:09;4.00;;;3.70;;
10894;SDS011;5500;49.886;8.074;2023-06-10T13:22:37;3.75;;;3.40;;
10894;SDS011;5500;49.886;8.074;2023-06-10T13:25:05;3.67;;;3.38;;
10894;SDS011;5500;49.886;8.074;2023-06-10T13:27:34;4.40;;;3.70;;
10894;SDS011;5500;49.886;8.074;2023-06-10T13:30:04;4.63;;;3.95;;
10894;SDS011;5500;49.886;8.074;2023-06-10T13:32:33;4.15;;;3.75;;
10894;SDS011;5500;49.886;8.074;2023-06-10T13:35:01;5.88;;;4.00;;
10894;SDS011;5500;49.886;8.074;2023-06-10T13:37:32;4.30;;;3.90;;
10894;SDS011;5500;49.886;8.074;2023-06-10T13:40:02;5.45;;;3.75;;
10894;SDS011;5500;49.886;8.074;2023-06-10T13:42:31;4.07;;;3.67;;
10894;SDS011;5500;49.886;8.074;2023-06-10T13:44:59;3.40;;;3.20;;
10894;SDS011;5500;49.886;8.074;2023-06-10T13:47:27;5.18;;;3.45;;
10894;SDS011;5500;49.886;8.074;2023-06-10T13:49:54;3.80;;;3.50;;
10894;SDS011;5500;49.886;8.074;2023-06-10T13:52:22;3.97;;;3.58;;
10894;SDS011;5500;49.886;8.074;2023-06-10T13:54:51;4.88;;;3.53;;
10894;SDS011;5500;49.886;8.074;2023-06-10T13:57:19;3.90;;;3.50;;
10894;SDS011;5500;49.886;8.074;2023-06-10T13:59:46;4.13;;;3.72;;
10894;SDS011;5500;49.886;8.074;2023-06-10T14:02:14;4.40;;;3.65;;
10894;SDS011;5500;49.886;8.074;2023-06-10T14:04:43;6.70;;;3.65;;
10894;SDS011;5500;49.886;8.074;2023-06-10T14:07:10;6.80;;;3.90;;
10894;SDS011;5500;49.886;8.074;2023-06-10T14:09:38;5.22;;;3.88;;
10894;SDS011;5500;49.886;8.074;2023-06-10T14:12:07;4.00;;;3.65;;
10894;SDS011;5500;49.886;8.074;2023-06-10T14:14:35;5.80;;;4.13;;
10894;SDS011;5500;49.886;8.074;2023-06-10T14:17:03;4.13;;;3.75;;
10894;SDS011;5500;49.886;8.074;2023-06-10T14:19:32;4.00;;;3.60;;
10894;SDS011;5500;49.886;8.074;2023-06-10T14:21:59;4.47;;;3.50;;
10894;SDS011;5500;49.886;8.074;2023-06-10T14:24:27;4.03;;;3.63;;
10894;SDS011;5500;49.886;8.074;2023-06-10T14:26:55;6.15;;;3.90;;
10894;SDS011;5500;49.886;8.074;2023-06-10T14:29:25;5.43;;;3.67;;
10894;SDS011;5500;49.886;8.074;2023-06-10T14:31:55;3.85;;;3.55;;
10894;SDS011;5500;49.886;8.074;2023-06-10T14:34:22;5.32;;;3.67;;
10894;SDS011;5500;49.886;8.074;2023-06-10T14:36:54;6.72;;;3.83;;
10894;SDS011;5500;49.886;8.074;2023-06-10T14:39:22;5.65;;;4.10;;
10894;SDS011;5500;49.886;8.074;2023-06-10T14:41:50;4.55;;;3.97;;
10894;SDS011;5500;49.886;8.074;2023-06-10T14:44:19;6.07;;;4.30;;
10894;SDS011;5500;49.886;8.074;2023-06-10T14:46:48;5.93;;;3.80;;
10894;SDS011;5500;49.886;8.074;2023-06-10T14:49:15;4.50;;;3.95;;
10894;SDS011;5500;49.886;8.074;2023-06-10T14:51:43;6.45;;;4.20;;
10894;SDS011;5500;49.886;8.074;2023-06-10T14:54:11;4.35;;;4.05;;
10894;SDS011;5500;49.886;8.074;2023-06-10T14:56:39;3.92;;;3.53;;
10894;SDS011;5500;49.886;8.074;2023-06-10T14:59:06;5.13;;;4.50;;
10894;SDS011;5500;49.886;8.074;2023-06-10T15:01:34;4.05;;;3.63;;
10894;SDS011;5500;49.886;8.074;2023-06-10T15:04:03;4.30;;;3.90;;
10894;SDS011;5500;49.886;8.074;2023-06-10T15:06:31;4.28;;;3.88;;
10894;SDS011;5500;49.886;8.074;2023-06-10T15:08:59;4.15;;;3.75;;
10894;SDS011;5500;49.886;8.074;2023-06-10T15:11:29;4.82;;;4.05;;
10894;SDS011;5500;49.886;8.074;2023-06-10T15:13:56;4.65;;;4.07;;
10894;SDS011;5500;49.886;8.074;2023-06-10T15:16:24;4.47;;;3.90;;